Архив погоды в Обояни

Метеограмма Обоянь
Вторник, 23 Апреля
Время местн. Темп Ветер Видим Явления Облачность нижн/средн/верх Атм. давл. Влжн Точка росы ВНГО R Сост. почвы Tg s
Напр Скр Прв ур.ст ур.м изм
18:00 +19.4° С,С-З 2 - 50 км - переменная облачность 754 771 -0.7 18% -5.4° - - - - -
15:00 +20.9° З,С-З 2 - 50 км - переменная облачность 754 771 -0.6 16% -5.7° 1 км - - - -
12:00 +19.7° В,С-В 2 - 50 км - облачно с прояснениями 755 772 +0.1 17% -6° 1 км - - - -
09:00 +12.8° Ю,Ю-З 1 - 50 км - ясно 755 772 +0.7 51% +3° более 2.5 км 0 Влажная (без луж) - -
06:00 +1.3° штиль 0 - 10 км - ясно 754 772 +0.5 81% -1.6° более 2.5 км - - - -
03:00 +3.6° штиль 0 - 10 км - ясно 754 772 +0.2 67% -1.9° более 2.5 км - - - -
00:00 +5.7° штиль 0 - 10 км - ясно 754 772 +0.4 55% -2.7° более 2.5 км - - - -
Понедельник, 22 Апреля
Время местн. Темп Ветер Видим Явления Облачность нижн/средн/верх Атм. давл. Влжн Точка росы ВНГО R Сост. почвы Tg s
Напр Скр Прв ур.ст ур.м изм
21:00 +10.3° штиль 0 - 10 км - ясно 753 771 +0.5 33% -5.1° более 2.5 км 0 - - -
18:00 +17.8° В 1 - 50 км - переменная облачность 753 770 -0.5 15% -8.9° 1.5 км - - - -
15:00 +17.6° С-В 1 - 50 км - переменная облачность 753 770 -0.8 15% -9° - - - - -
12:00 +17° В 3 - 50 км - переменная облачность 754 771 +0.1 16% -9.3° - - - - -
09:00 +11.2° В 1 - 50 км - облачно с прояснениями 754 772 +0.8 38% -2.6° - 0 Влажная (без луж) - -
06:00 +2.1° С 1 - 10 км - преимущественно облачно 753 771 +0.2 77% -1.5° - - - - -
03:00 +2.4° штиль 0 - 10 км - переменная облачность 753 771 +0.3 73% -1.9° - - - - -
00:00 +3.9° С,С-В 1 - 10 км - ясно 753 771 +0.5 62% -2.8° более 2.5 км - - - -
Воскресенье, 21 Апреля
Время местн. Темп Ветер Видим Явления Облачность нижн/средн/верх Атм. давл. Влжн Точка росы ВНГО R Сост. почвы Tg s
Напр Скр Прв ур.ст ур.м изм
21:00 +8° штиль 0 - 10 км - переменная облачность 753 770 +0.7 33% -7.3° - 0 - - -
18:00 +15.4° Ю 1 - 50 км - облачно с прояснениями 752 769 -0.2 16% -10.5° 1 км - - - -
15:00 +15.1° Ю-В 2 - 50 км - переменная облачность 752 769 -0.5 16% -10.2° 1 км - - - -
12:00 +14.8° В,Ю-В 2 - 50 км - переменная облачность 753 770 +0.1 17% -9.7° 1 км - - - -
09:00 +9.8° Ю 1 - 50 км - ясно 753 770 +0.5 40% -3.2° более 2.5 км 0 Влажная (без луж) - -
06:00 -0.8° штиль 0 - 10 км - переменная облачность 752 770 +0.3 85% -3° более 2.5 км - - - -
03:00 -0.2° штиль 0 - 10 км - ясно 752 770 -0.3 78% -3.5° более 2.5 км - - - -
00:00 +2.6° штиль 0 - 10 км - ясно 752 770 0 63% -3.8° более 2.5 км - - - -
Суббота, 20 Апреля
Время местн. Темп Ветер Видим Явления Облачность нижн/средн/верх Атм. давл. Влжн Точка росы ВНГО R Сост. почвы Tg s
Напр Скр Прв ур.ст ур.м изм
21:00 +8.8° З 1 - 10 км - ясно 752 770 +0.3 34% -6.1° более 2.5 км 0 - - -
18:00 +14° З 2 - 50 км - переменная облачность 752 769 -0.5 20% -8.7° 1.5 км - - - -
15:00 +15.1° З,С-З 1 - 50 км - переменная облачность 752 769 -1 18% -8.7° 1.5 км - - - -